Time;durP1;ratioP1;P1;durP2;ratioP2;P2;SDS_P1;SDS_P2;PMS_P1;PMS_P2;Temp;Humidity;BMP_temperature;BMP_pressure;BME280_temperature;BME280_humidity;BME280_pressure;Samples;Min_cycle;Max_cycle;Signal;HPM_P1;HPM_P2
2023/11/20 00:01:01;;;;;;;22.20;10.47;;;;;;;-0.53;70.94;100084.82;124439;1109;102145;-83
2023/11/20 00:03:43;;;;;;;22.60;9.90;;;;;;;-0.56;70.56;100088.09;124514;1108;102106;-84
2023/11/20 00:06:14;;;;;;;21.43;9.20;;;;;;;-0.58;70.27;100087.05;124367;1107;102349;-84
2023/11/20 00:08:46;;;;;;;21.50;9.20;;;;;;;-0.60;70.46;100083.48;124436;1108;102186;-83
2023/11/20 00:11:18;;;;;;;20.73;9.90;;;;;;;-0.62;71.33;100083.38;124499;1109;104115;-84
2023/11/20 00:13:49;;;;;;;24.03;10.27;;;;;;;-0.63;70.80;100081.56;124676;1108;101933;-83
2023/11/20 00:16:21;;;;;;;21.00;10.00;;;;;;;-0.63;70.37;100083.26;124457;1108;102012;-83
2023/11/20 00:18:52;;;;;;;23.50;10.30;;;;;;;-0.63;70.85;100091.87;124353;1109;102250;-84
2023/11/20 00:21:24;;;;;;;23.63;10.03;;;;;;;-0.64;70.41;100087.53;124515;1109;101900;-84
2023/11/20 00:23:55;;;;;;;21.00;9.10;;;;;;;-0.64;70.77;100084.03;124497;1108;102185;-84
2023/11/20 00:26:27;;;;;;;19.73;9.20;;;;;;;-0.66;70.62;100077.87;124404;1109;104213;-83
2023/11/20 00:29:04;;;;;;;22.57;10.50;;;;;;;-0.67;70.70;100076.99;124519;1107;104351;-82
2023/11/20 00:31:36;;;;;;;22.53;9.80;;;;;;;-0.70;70.76;100075.84;124357;1109;102138;-83
2023/11/20 00:34:09;;;;;;;20.53;9.33;;;;;;;-0.77;71.37;100071.94;124534;1107;102497;-81
2023/11/20 00:36:40;;;;;;;23.40;9.83;;;;;;;-0.80;71.40;100069.13;124349;1109;102454;-84
2023/11/20 00:39:11;;;;;;;22.17;10.23;;;;;;;-0.82;70.75;100075.86;124553;1108;104293;-84
2023/11/20 00:41:43;;;;;;;20.80;9.97;;;;;;;-0.89;70.50;100071.91;124559;1108;102080;-83
2023/11/20 00:44:15;;;;;;;22.33;9.50;;;;;;;-0.92;71.66;100066.53;124513;1109;101818;-84
2023/11/20 00:46:47;;;;;;;23.43;10.70;;;;;;;-0.93;71.41;100069.91;124499;1108;104230;-83
2023/11/20 00:49:19;;;;;;;25.70;10.87;;;;;;;-0.97;71.76;100065.30;124496;1108;104380;-83
2023/11/20 00:51:50;;;;;;;23.90;11.17;;;;;;;-1.00;71.17;100065.96;124428;1108;104338;-83
2023/11/20 00:54:22;;;;;;;22.03;10.87;;;;;;;-1.03;71.88;100075.15;124483;1109;104261;-82
2023/11/20 00:56:54;;;;;;;23.17;9.63;;;;;;;-1.07;70.88;100076.61;124476;1108;104310;-85
2023/11/20 00:59:26;;;;;;;22.10;10.30;;;;;;;-1.11;71.54;100072.00;124519;1109;104185;-84
2023/11/20 01:01:58;;;;;;;23.07;10.07;;;;;;;-1.13;70.98;100077.03;124581;1108;102347;-84
2023/11/20 01:04:29;;;;;;;21.77;10.37;;;;;;;-1.13;71.91;100079.61;124572;1108;102131;-84
2023/11/20 01:07:01;;;;;;;22.80;10.73;;;;;;;-1.14;71.62;100074.34;124376;1109;104182;-83
2023/11/20 01:09:33;;;;;;;22.03;10.53;;;;;;;-1.12;71.41;100081.41;124425;1108;104188;-84
2023/11/20 01:12:05;;;;;;;26.77;10.37;;;;;;;-1.11;70.99;100075.48;124728;1108;101849;-84
2023/11/20 01:14:36;;;;;;;24.60;11.50;;;;;;;-1.11;71.94;100072.91;124416;1108;102045;-83
2023/11/20 01:17:08;;;;;;;24.20;10.60;;;;;;;-1.09;71.10;100076.48;124482;1109;101826;-83
2023/11/20 01:19:39;;;;;;;21.03;9.77;;;;;;;-1.11;71.43;100077.15;124362;1109;101987;-82
2023/11/20 01:22:11;;;;;;;23.23;10.00;;;;;;;-1.12;71.01;100078.84;124476;1109;104306;-83
2023/11/20 01:24:42;;;;;;;21.20;9.47;;;;;;;-1.15;72.25;100068.30;124412;1109;104256;-84
2023/11/20 01:27:14;;;;;;;22.90;9.75;;;;;;;-1.16;71.66;100069.08;124455;1109;104179;-84
2023/11/20 01:29:45;;;;;;;23.07;10.40;;;;;;;-1.14;72.37;100069.19;124443;1108;104182;-82
2023/11/20 01:32:17;;;;;;;23.43;10.30;;;;;;;-1.13;71.94;100077.03;124476;1108;102038;-83
2023/11/20 01:34:48;;;;;;;22.80;10.30;;;;;;;-1.18;72.06;100072.34;124421;1108;104211;-84
2023/11/20 01:37:20;;;;;;;22.50;9.87;;;;;;;-1.18;71.51;100070.65;124471;1108;104201;-85
2023/11/20 01:39:51;;;;;;;23.43;10.07;;;;;;;-1.18;72.51;100075.80;124430;1109;101775;-85
2023/11/20 01:42:23;;;;;;;20.50;8.90;;;;;;;-1.20;71.83;100076.45;124416;1108;104320;-83
2023/11/20 01:44:55;;;;;;;21.03;9.87;;;;;;;-1.21;71.50;100078.14;124426;1109;102431;-84
2023/11/20 01:47:27;;;;;;;21.90;9.67;;;;;;;-1.18;72.62;100080.06;124385;1109;104323;-83
2023/11/20 01:49:59;;;;;;;22.23;9.63;;;;;;;-1.19;72.03;100076.56;124454;1109;101864;-84
2023/11/20 01:52:30;;;;;;;22.87;9.53;;;;;;;-1.21;72.05;100066.95;124551;1108;104287;-84
2023/11/20 01:55:02;;;;;;;21.43;10.00;;;;;;;-1.23;72.11;100078.80;124410;1108;102223;-84
2023/11/20 01:57:34;;;;;;;20.70;9.37;;;;;;;-1.23;71.76;100071.99;124300;1109;104249;-84
2023/11/20 02:00:09;;;;;;;21.60;9.50;;;;;;;-1.24;72.89;100077.02;124487;1108;104190;-83
2023/11/20 02:02:44;;;;;;;22.23;10.00;;;;;;;-1.30;71.92;100070.61;124627;1107;101852;-83
2023/11/20 02:05:16;;;;;;;21.87;9.93;;;;;;;-1.30;72.03;100070.61;124678;1108;104287;-83
2023/11/20 02:07:47;;;;;;;23.27;10.20;;;;;;;-1.30;72.45;100069.72;124838;1106;102054;-83
2023/11/20 02:10:19;;;;;;;21.87;9.90;;;;;;;-1.32;72.50;100063.57;124840;1108;101945;-84
2023/11/20 02:12:54;;;;;;;23.53;10.40;;;;;;;-1.33;73.27;100069.48;124801;1109;101871;-84
2023/11/20 02:15:26;;;;;;;22.63;9.53;;;;;;;-1.35;72.50;100074.52;124837;1108;102000;-83
2023/11/20 02:17:58;;;;;;;23.07;10.30;;;;;;;-1.36;73.63;100075.29;124639;1109;104161;-82
2023/11/20 02:20:29;;;;;;;27.03;10.10;;;;;;;-1.36;73.25;100074.41;124615;1109;102265;-84
2023/11/20 02:23:01;;;;;;;23.00;10.20;;;;;;;-1.36;72.99;100075.29;124533;1107;102162;-83
2023/11/20 02:25:32;;;;;;;22.37;9.93;;;;;;;-1.30;73.15;100065.46;124771;1109;104105;-85
2023/11/20 02:28:16;;;;;;;24.40;10.97;;;;;;;-1.27;72.86;100069.95;124642;1106;101847;-84
2023/11/20 02:30:48;;;;;;;23.03;10.63;;;;;;;-1.24;72.75;100069.30;124757;1108;104290;-83
2023/11/20 02:33:19;;;;;;;23.80;10.80;;;;;;;-1.26;73.63;100066.61;124587;1109;101907;-83
2023/11/20 02:35:51;;;;;;;22.43;10.33;;;;;;;-1.24;72.66;100072.77;124567;1109;102240;-83
2023/11/20 02:38:22;;;;;;;27.90;10.83;;;;;;;-1.25;73.37;100068.38;124568;1108;104271;-84
2023/11/20 02:40:54;;;;;;;22.57;10.47;;;;;;;-1.31;73.68;100068.83;124672;1108;104216;-83
2023/11/20 02:43:26;;;;;;;21.47;9.70;;;;;;;-1.33;73.55;100069.48;124526;1109;101945;-84
2023/11/20 02:45:58;;;;;;;22.10;10.60;;;;;;;-1.36;73.92;100070.14;124515;1109;104262;-83
2023/11/20 02:48:29;;;;;;;21.75;9.50;;;;;;;-1.39;73.51;100069.02;124585;1108;102227;-84
2023/11/20 02:51:04;;;;;;;22.43;9.77;;;;;;;-1.36;74.12;100062.42;124540;1109;104201;-82
2023/11/20 02:53:36;;;;;;;23.80;10.77;;;;;;;-1.36;74.12;100067.56;124701;1108;104201;-83
2023/11/20 02:56:09;;;;;;;21.93;9.90;;;;;;;-1.37;73.53;100070.02;124581;1108;102103;-83
2023/11/20 02:58:40;;;;;;;23.95;10.65;;;;;;;-1.35;73.65;100076.20;124653;1107;104380;-83
2023/11/20 03:01:12;;;;;;;22.90;9.97;;;;;;;-1.35;74.18;100064.22;124470;1109;102590;-83
2023/11/20 03:03:43;;;;;;;23.07;9.97;;;;;;;-1.33;74.02;100064.34;124587;1108;104217;-82
2023/11/20 03:06:15;;;;;;;21.87;10.30;;;;;;;-1.33;72.91;100064.34;124532;1109;102004;-83
2023/11/20 03:08:46;;;;;;;24.07;11.17;;;;;;;-1.34;73.76;100052.23;124521;1109;102025;-83
2023/11/20 03:11:18;;;;;;;23.50;9.90;;;;;;;-1.35;73.73;100058.19;124681;1108;102801;-83
2023/11/20 03:13:50;;;;;;;22.17;9.53;;;;;;;-1.34;73.41;100055.73;124712;1109;101955;-83
2023/11/20 03:16:22;;;;;;;22.33;9.90;;;;;;;-1.35;73.79;100053.05;124510;1109;104198;-83
2023/11/20 03:18:53;;;;;;;24.07;10.60;;;;;;;-1.37;73.17;100044.28;124601;1108;104258;-83
2023/11/20 03:21:25;;;;;;;23.50;10.87;;;;;;;-1.36;74.47;100046.09;124359;1109;102036;-83
2023/11/20 03:23:56;;;;;;;25.20;10.30;;;;;;;-1.37;74.47;100049.43;124598;1109;101906;-83
2023/11/20 03:26:28;;;;;;;23.63;10.27;;;;;;;-1.38;74.51;100039.94;124493;1109;102016;-83
2023/11/20 03:29:03;;;;;;;23.13;9.97;;;;;;;-1.39;73.67;100045.86;124437;1108;104268;-83
2023/11/20 03:31:40;;;;;;;22.07;10.17;;;;;;;-1.41;73.36;100043.16;124474;1108;104192;-84
2023/11/20 03:34:13;;;;;;;24.17;10.63;;;;;;;-1.41;74.76;100038.02;124630;1108;102131;-83
2023/11/20 03:36:44;;;;;;;21.97;10.30;;;;;;;-1.40;74.58;100041.48;124437;1108;104214;-85
2023/11/20 03:39:16;;;;;;;25.03;10.87;;;;;;;-1.40;73.99;100036.33;124714;1109;104284;-84
2023/11/20 03:41:48;;;;;;;21.67;10.13;;;;;;;-1.42;74.61;100028.49;124778;1109;102003;-84
2023/11/20 03:44:19;;;;;;;23.40;10.40;;;;;;;-1.44;74.42;100030.06;124628;1108;104220;-85
2023/11/20 03:46:51;;;;;;;23.67;10.87;;;;;;;-1.47;73.86;100037.55;124642;1109;104208;-85
2023/11/20 03:49:23;;;;;;;22.90;10.10;;;;;;;-1.50;74.93;100033.06;124611;1109;102151;-84
2023/11/20 03:51:54;;;;;;;23.93;10.73;;;;;;;-1.52;73.62;100032.06;124650;1109;102027;-83
2023/11/20 03:54:26;;;;;;;24.17;10.87;;;;;;;-1.50;74.22;100030.48;124739;1109;102075;-83
2023/11/20 03:56:58;;;;;;;25.20;11.70;;;;;;;-1.52;74.88;100031.17;124757;1109;104099;-84
2023/11/20 03:59:30;;;;;;;22.73;9.97;;;;;;;-1.53;75.08;100031.94;124602;1108;104287;-85
2023/11/20 04:02:01;;;;;;;23.40;10.60;;;;;;;-1.53;75.21;100029.36;124677;1108;104242;-84
2023/11/20 04:04:33;;;;;;;23.87;10.77;;;;;;;-1.54;75.13;100032.70;124658;1108;117923;-86
2023/11/20 04:07:05;;;;;;;26.07;10.57;;;;;;;-1.56;75.21;100027.45;124915;1109;102440;-86
2023/11/20 04:09:37;;;;;;;25.40;10.60;;;;;;;-1.57;74.18;100027.33;124697;1109;101919;-86
2023/11/20 04:12:09;;;;;;;23.33;10.57;;;;;;;-1.57;74.41;100029.91;124521;1106;102128;-83
2023/11/20 04:14:41;;;;;;;24.63;11.10;;;;;;;-1.57;74.79;100028.25;124458;1109;102055;-83
2023/11/20 04:17:12;;;;;;;26.27;10.93;;;;;;;-1.55;75.01;100029.25;124240;1109;102205;-82
2023/11/20 04:19:44;;;;;;;24.10;10.13;;;;;;;-1.55;74.83;100026.67;124208;1109;101823;-81
2023/11/20 04:22:18;;;;;;;21.00;9.33;;;;;;;-1.56;74.84;100023.98;124142;1109;101990;-81
2023/11/20 04:24:49;;;;;;;24.47;10.70;;;;;;;-1.55;75.01;100030.94;124124;1109;111088;-81
2023/11/20 04:27:22;;;;;;;25.80;11.60;;;;;;;-1.55;75.32;100026.67;124164;1108;101820;-81
2023/11/20 04:29:54;;;;;;;26.30;11.15;;;;;;;-1.55;75.41;100029.25;124150;1109;102318;-81
2023/11/20 04:32:26;;;;;;;23.95;10.40;;;;;;;-1.52;74.85;100034.63;124060;1109;104169;-82
2023/11/20 04:34:57;;;;;;;22.60;10.17;;;;;;;-1.52;74.27;100032.06;124109;1108;104188;-81
2023/11/20 04:37:29;;;;;;;25.53;11.60;;;;;;;-1.53;74.75;100037.97;124096;1109;104217;-82
2023/11/20 04:40:00;;;;;;;26.30;11.65;;;;;;;-1.56;75.23;100031.70;124083;1109;104283;-81
2023/11/20 04:42:32;;;;;;;23.67;10.80;;;;;;;-1.56;75.11;100032.59;124193;1108;101950;-82
2023/11/20 04:45:04;;;;;;;25.30;11.53;;;;;;;-1.56;75.58;100032.59;124164;1109;101970;-83
2023/11/20 04:47:36;;;;;;;25.97;11.40;;;;;;;-1.58;74.42;100035.84;124042;1109;102036;-81
2023/11/20 04:50:09;;;;;;;24.73;11.00;;;;;;;-1.58;74.61;100035.84;124752;1109;104082;-82
2023/11/20 04:52:41;;;;;;;26.87;11.95;;;;;;;-1.57;75.19;100046.27;124156;1108;104201;-81
2023/11/20 04:55:13;;;;;;;25.93;11.07;;;;;;;-1.58;75.12;100041.00;124187;1109;102033;-83
2023/11/20 04:57:44;;;;;;;22.03;10.03;;;;;;;-1.59;75.35;100045.26;124798;1108;104293;-83
2023/11/20 05:00:17;;;;;;;25.07;10.40;;;;;;;-1.59;75.05;100045.26;124330;1108;103939;-82
2023/11/20 05:02:48;;;;;;;23.93;11.07;;;;;;;-1.57;74.59;100041.11;124447;1109;103231;-82
2023/11/20 05:05:20;;;;;;;22.77;10.60;;;;;;;-1.52;75.63;100047.50;124405;1109;102330;-81
2023/11/20 05:07:52;;;;;;;24.00;10.53;;;;;;;-1.52;74.99;100050.07;124299;1108;104205;-81
2023/11/20 05:10:23;;;;;;;23.20;9.73;;;;;;;-1.49;75.53;100055.45;124268;1109;102082;-82
2023/11/20 05:12:55;;;;;;;26.03;10.60;;;;;;;-1.44;75.50;100048.08;124278;1107;104226;-81
2023/11/20 05:15:26;;;;;;;24.87;11.63;;;;;;;-1.38;74.48;100050.23;124354;1109;104227;-80
2023/11/20 05:17:58;;;;;;;26.70;11.30;;;;;;;-1.40;74.48;100047.55;124849;1109;104185;-78
2023/11/20 05:20:29;;;;;;;27.50;12.55;;;;;;;-1.40;75.65;100050.13;124026;1108;104265;-78
2023/11/20 05:23:01;;;;;;;23.17;10.27;;;;;;;-1.39;75.56;100054.47;124025;1108;104243;-77
2023/11/20 05:25:32;;;;;;;24.63;10.57;;;;;;;-1.35;75.23;100051.35;123761;1106;104372;-76
2023/11/20 05:28:04;;;;;;;23.25;10.95;;;;;;;-1.33;75.52;100052.35;123805;1108;104230;-76
2023/11/20 05:30:36;;;;;;;23.83;11.60;;;;;;;-1.29;75.21;100048.36;123807;1107;104249;-76
2023/11/20 05:33:10;;;;;;;23.47;10.97;;;;;;;-1.25;75.93;100052.05;123908;1109;104191;-77
2023/11/20 05:35:42;;;;;;;19.92;8.80;;;;;;;-1.24;75.80;100051.28;124026;1109;102091;-77
2023/11/20 05:38:13;;;;;;;25.53;11.27;;;;;;;-1.23;74.92;100042.75;124041;1109;104185;-78
2023/11/20 05:40:46;;;;;;;26.63;11.37;;;;;;;-1.27;75.39;100045.09;124108;1109;103169;-81
2023/11/20 05:43:17;;;;;;;27.07;11.23;;;;;;;-1.29;74.98;100050.93;124391;1108;104287;-84
2023/11/20 05:45:51;;;;;;;24.63;10.63;;;;;;;-1.33;75.04;100047.20;124391;1108;104210;-82
2023/11/20 05:48:22;;;;;;;28.23;11.30;;;;;;;-1.35;75.01;100047.89;124463;1108;102023;-81
2023/11/20 05:50:54;;;;;;;24.50;11.13;;;;;;;-1.36;74.63;100053.81;124411;1109;102240;-80
2023/11/20 05:53:43;;;;;;;23.43;10.33;;;;;;;-1.36;74.73;100048.66;124311;1108;104285;-79
2023/11/20 05:56:15;;;;;;;24.07;10.40;;;;;;;-1.35;75.60;100055.61;124124;1108;104179;-81
2023/11/20 05:58:48;;;;;;;23.70;10.10;;;;;;;-1.33;75.31;100051.47;124243;1109;104300;-80
2023/11/20 06:01:19;;;;;;;25.10;10.73;;;;;;;-1.30;75.36;100055.16;124205;1108;102284;-81
2023/11/20 06:03:51;;;;;;;24.47;10.30;;;;;;;-1.27;75.81;100060.54;124240;1108;104070;-77
2023/11/20 06:06:23;;;;;;;26.10;11.47;;;;;;;-1.25;75.20;100058.08;124141;1108;102025;-78
2023/11/20 06:08:55;;;;;;;25.43;11.20;;;;;;;-1.15;74.79;100049.39;124152;1107;102551;-78
2023/11/20 06:11:26;;;;;;;25.23;11.00;;;;;;;-1.03;74.92;100054.55;124082;1108;101985;-78
2023/11/20 06:13:58;;;;;;;23.73;10.93;;;;;;;-0.91;75.88;100050.30;123918;1109;102084;-77
2023/11/20 06:16:30;;;;;;;22.60;10.60;;;;;;;-0.83;75.07;100056.91;124221;1108;103326;-78
2023/11/20 06:19:02;;;;;;;25.03;11.23;;;;;;;-0.76;75.33;100058.28;124143;1108;104198;-79
2023/11/20 06:21:34;;;;;;;22.80;10.63;;;;;;;-0.69;75.00;100060.50;123983;1109;102902;-79
2023/11/20 06:24:10;;;;;;;26.50;11.80;;;;;;;-0.59;75.71;100056.94;124214;1109;102470;-79
2023/11/20 06:26:47;;;;;;;28.87;12.53;;;;;;;-0.50;74.85;100064.42;125720;1106;103102;-77
2023/11/20 06:29:24;;;;;;;29.23;11.93;;;;;;;-0.40;75.65;100072.94;124731;1106;104217;-81
2023/11/20 06:31:56;;;;;;;26.13;11.60;;;;;;;-0.35;75.49;100065.53;124978;1109;104363;-81
2023/11/20 06:34:31;;;;;;;27.60;11.85;;;;;;;-0.32;75.82;100070.91;125088;1109;104616;-80
2023/11/20 06:37:03;;;;;;;25.87;11.20;;;;;;;-0.24;75.34;100069.77;124289;1109;103096;-79
2023/11/20 06:39:37;;;;;;;25.40;11.17;;;;;;;-0.21;75.09;100074.27;124173;1108;104253;-78
2023/11/20 06:42:10;;;;;;;25.80;11.83;;;;;;;-0.19;75.38;100080.41;124269;1108;104259;-78
2023/11/20 06:44:44;;;;;;;27.73;12.07;;;;;;;-0.15;75.08;100082.44;124139;1108;103022;-77
2023/11/20 06:47:29;;;;;;;25.70;11.50;;;;;;;-0.11;75.13;100073.22;124160;1109;103136;-79
2023/11/20 06:50:03;;;;;;;27.95;10.65;;;;;;;-0.08;75.48;100064.05;124243;1109;102866;-79
2023/11/20 06:52:35;;;;;;;24.37;10.90;;;;;;;-0.03;75.15;100059.21;124179;1108;103724;-78
2023/11/20 06:55:10;;;;;;;27.43;11.50;;;;;;;0.02;74.92;100064.66;124450;1108;102268;-77
2023/11/20 06:57:46;;;;;;;26.97;11.40;;;;;;;0.07;75.10;100060.75;124291;1107;102258;-79
2023/11/20 07:00:19;;;;;;;28.80;12.00;;;;;;;0.14;75.05;100062.95;124345;1109;104706;-77
2023/11/20 07:02:53;;;;;;;25.83;11.47;;;;;;;0.21;75.03;100056.55;124120;1109;103971;-78
2023/11/20 07:05:26;;;;;;;30.75;12.50;;;;;;;0.28;74.95;100057.09;124026;1109;103264;-79
2023/11/20 07:08:00;;;;;;;29.60;12.80;;;;;;;0.35;74.81;100053.23;124315;1108;104329;-79
2023/11/20 07:10:39;;;;;;;37.03;13.70;;;;;;;0.43;74.42;100051.19;124229;1109;103151;-77
2023/11/20 07:13:16;;;;;;;32.97;13.10;;;;;;;0.52;74.46;100054.40;124407;1109;102988;-77
2023/11/20 07:15:51;;;;;;;27.50;12.33;;;;;;;0.57;74.55;100057.30;124411;1109;104357;-77
2023/11/20 07:21:50;;;;;;;29.20;11.27;;;;;;;0.72;74.22;100055.75;125171;1109;102327;-78
2023/11/20 07:24:32;;;;;;;26.20;11.03;;;;;;;0.77;74.06;100053.48;125101;1108;104235;-80
2023/11/20 07:27:22;;;;;;;25.53;11.77;;;;;;;0.81;73.89;100046.05;125071;1108;104159;-78
2023/11/20 07:29:55;;;;;;;26.30;10.97;;;;;;;0.88;73.87;100052.51;125082;1108;101979;-80
2023/11/20 07:32:26;;;;;;;26.30;10.97;;;;;;;0.95;73.29;100057.30;125058;1108;102728;-78
2023/11/20 07:35:11;;;;;;;25.23;11.40;;;;;;;1.00;74.30;100055.03;125069;1108;103138;-76
2023/11/20 07:37:44;;;;;;;26.12;10.25;;;;;;;1.08;73.42;100054.72;124833;1109;104159;-77
2023/11/20 07:40:19;;;;;;;23.85;10.35;;;;;;;1.17;74.41;100056.11;125213;1108;101674;-79
2023/11/20 07:42:54;;;;;;;23.67;11.20;;;;;;;1.23;73.70;100048.77;124343;1109;104191;-75
2023/11/20 07:45:27;;;;;;;24.07;11.07;;;;;;;1.29;73.92;100049.16;124205;1108;102135;-80
2023/11/20 07:48:14;;;;;;;23.57;10.37;;;;;;;1.42;73.92;100050.88;124117;1109;104297;-78
2023/11/20 07:50:51;;;;;;;23.87;10.67;;;;;;;1.47;73.82;100051.18;124182;1109;103180;-78
2023/11/20 07:53:25;;;;;;;23.03;10.60;;;;;;;1.55;73.94;100050.86;124167;1108;102511;-78
2023/11/20 07:56:02;;;;;;;24.70;11.00;;;;;;;1.63;73.81;100043.59;124090;1108;104311;-78
2023/11/20 07:58:35;;;;;;;23.07;10.63;;;;;;;1.69;74.13;100043.98;124119;1108;104303;-78
2023/11/20 08:01:23;;;;;;;23.53;10.50;;;;;;;1.82;74.00;100045.65;124098;1109;104332;-77
2023/11/20 08:03:58;;;;;;;22.23;9.83;;;;;;;1.91;73.92;100043.64;124231;1108;104245;-78
2023/11/20 08:06:34;;;;;;;25.67;10.47;;;;;;;1.97;74.10;100040.55;124306;1108;104220;-76
2023/11/20 08:09:09;;;;;;;22.87;10.60;;;;;;;2.07;73.93;100048.11;124215;1109;103062;-75
2023/11/20 08:11:44;;;;;;;22.63;11.07;;;;;;;2.18;74.52;100042.68;124081;1108;104244;-75
2023/11/20 08:14:18;;;;;;;23.23;9.53;;;;;;;2.24;73.73;100056.00;124077;1109;102325;-75
2023/11/20 08:16:54;;;;;;;22.80;9.50;;;;;;;2.15;72.95;100054.64;124113;1108;102871;-76
2023/11/20 08:19:31;;;;;;;22.90;9.63;;;;;;;2.06;72.29;100051.48;124286;1109;104198;-77
2023/11/20 08:22:06;;;;;;;21.97;9.80;;;;;;;1.97;72.27;100044.03;124274;1109;103348;-78
2023/11/20 08:24:39;;;;;;;21.73;8.97;;;;;;;1.96;72.47;100049.11;124360;1108;102065;-80
2023/11/20 08:27:11;;;;;;;19.47;8.30;;;;;;;1.94;72.07;100048.13;124188;1108;102424;-78
2023/11/20 08:29:44;;;;;;;20.57;8.93;;;;;;;1.96;72.47;100044.84;124487;1109;102383;-77
2023/11/20 08:32:16;;;;;;;19.83;9.20;;;;;;;1.98;71.40;100038.06;124505;1109;103006;-77
2023/11/20 08:34:50;;;;;;;21.23;9.37;;;;;;;2.04;72.55;100034.98;124244;1109;104229;-79
2023/11/20 08:37:22;;;;;;;19.77;9.20;;;;;;;2.10;71.70;100037.95;124354;1109;101948;-77
2023/11/20 08:39:54;;;;;;;20.07;9.00;;;;;;;2.10;71.75;100027.59;124388;1108;103096;-75
2023/11/20 08:42:27;;;;;;;18.15;8.10;;;;;;;2.11;71.72;100028.47;124409;1109;102800;-77
2023/11/20 08:44:59;;;;;;;19.70;8.53;;;;;;;2.15;71.17;100031.34;124357;1108;102677;-77
2023/11/20 08:47:35;;;;;;;20.47;8.47;;;;;;;2.17;71.41;100028.85;124380;1109;102704;-75
2023/11/20 08:50:11;;;;;;;19.57;8.75;;;;;;;2.15;70.99;100026.17;124281;1109;104121;-79
2023/11/20 08:52:46;;;;;;;20.03;8.33;;;;;;;2.18;70.94;100024.56;124334;1109;104205;-76
2023/11/20 08:55:19;;;;;;;21.00;9.47;;;;;;;2.24;71.41;100019.76;124350;1109;102641;-75
2023/11/20 08:57:54;;;;;;;20.83;9.57;;;;;;;2.31;71.93;100021.94;124270;1109;102557;-75
2023/11/20 09:00:28;;;;;;;21.93;9.43;;;;;;;2.36;71.40;100020.51;124542;1108;104185;-79
2023/11/20 09:03:00;;;;;;;20.20;8.65;;;;;;;2.38;71.28;100013.72;124878;1108;103005;-81
2023/11/20 09:05:34;;;;;;;19.57;8.90;;;;;;;2.40;70.89;100014.72;124593;1109;102221;-76
2023/11/20 09:08:14;;;;;;;22.40;9.35;;;;;;;2.40;71.38;100022.49;124347;1109;103429;-77
2023/11/20 09:10:53;;;;;;;21.27;9.03;;;;;;;2.42;71.33;100013.11;124412;1109;102078;-78
2023/11/20 09:13:27;;;;;;;20.73;8.47;;;;;;;2.46;70.44;100007.33;124427;1109;102912;-77
2023/11/20 09:16:04;;;;;;;18.93;8.27;;;;;;;2.46;70.34;100007.33;124503;1109;102168;-79
2023/11/20 09:18:49;;;;;;;22.77;9.53;;;;;;;2.49;69.50;100006.59;125691;1108;101938;-80
2023/11/20 09:21:37;;;;;;;20.17;9.17;;;;;;;2.53;70.19;99998.22;125565;1108;105666;-78
2023/11/20 09:24:23;;;;;;;26.03;8.53;;;;;;;2.61;70.01;100002.15;125640;1108;103620;-79
2023/11/20 09:27:00;;;;;;;20.57;9.13;;;;;;;2.70;70.01;99997.52;125662;1108;102700;-80
2023/11/20 09:29:37;;;;;;;22.60;8.57;;;;;;;2.73;70.61;99995.89;125625;1108;101976;-76
2023/11/20 09:32:10;;;;;;;21.30;8.77;;;;;;;2.75;70.22;99995.19;125226;1108;102496;-79
2023/11/20 09:34:42;;;;;;;21.90;8.93;;;;;;;2.79;69.81;99996.25;124488;1109;103445;-80
2023/11/20 09:37:32;;;;;;;;;;;;;;;;;;;;;
2023/11/20 09:40:36;;;;;;;18.20;7.97;;;;;;;2.81;69.39;99992.08;125001;1109;103090;-80
2023/11/20 09:43:19;;;;;;;17.60;7.97;;;;;;;2.81;69.55;99987.78;124410;1107;102454;-77
2023/11/20 09:45:57;;;;;;;19.87;8.53;;;;;;;2.82;69.17;99986.98;124535;1107;102604;-77
2023/11/20 09:48:39;;;;;;;17.57;8.23;;;;;;;2.87;69.32;99989.84;124989;1109;104349;-77
2023/11/20 09:51:14;;;;;;;18.30;8.10;;;;;;;2.93;68.85;99989.28;125001;1107;102037;-80
2023/11/20 09:54:05;;;;;;;16.13;7.67;;;;;;;2.96;69.54;99979.09;125019;1108;102830;-77
2023/11/20 09:57:09;;;;;;;17.60;7.37;;;;;;;3.01;69.07;99981.16;125017;1109;102607;-77
2023/11/20 09:59:41;;;;;;;17.63;8.10;;;;;;;3.08;69.30;99984.98;124190;1109;103356;-77
2023/11/20 10:02:32;;;;;;;16.17;6.80;;;;;;;3.09;68.25;99975.53;124268;1108;113324;-83
2023/11/20 10:05:17;;;;;;;18.13;6.83;;;;;;;3.12;68.48;99978.30;125071;1109;101650;-78
2023/11/20 10:07:58;;;;;;;17.17;7.40;;;;;;;3.17;68.60;99966.48;124357;1109;103506;-78
2023/11/20 10:10:36;;;;;;;19.67;8.43;;;;;;;3.22;68.29;99973.69;124363;1107;104210;-76
2023/11/20 10:13:11;;;;;;;18.13;7.57;;;;;;;3.24;68.38;99966.92;124216;1109;104240;-75
2023/11/20 10:15:47;;;;;;;16.63;7.10;;;;;;;3.30;68.08;99960.28;124123;1109;104254;-79
2023/11/20 10:18:38;;;;;;;;;;;;;;;;;;;;;
2023/11/20 10:21:17;;;;;;;18.03;7.63;;;;;;;3.42;68.31;99969.63;124795;1109;102676;-76
2023/11/20 10:24:04;;;;;;;15.73;7.03;;;;;;;3.45;68.78;99968.03;124199;1109;104329;-78
2023/11/20 10:26:44;;;;;;;15.17;7.03;;;;;;;3.50;69.08;99963.98;125015;1108;102162;-76
2023/11/20 10:29:20;;;;;;;16.40;7.20;;;;;;;3.54;68.04;99958.17;124234;1109;102325;-78
2023/11/20 10:31:57;;;;;;;17.57;6.77;;;;;;;3.64;68.04;99968.22;124532;1109;103248;-76
2023/11/20 10:34:31;;;;;;;15.03;6.47;;;;;;;3.64;67.46;99964.74;124493;1106;104605;-82
2023/11/20 10:37:13;;;;;;;12.57;5.60;;;;;;;3.65;67.64;99954.45;124222;1109;103524;-78
2023/11/20 10:39:50;;;;;;;15.80;6.30;;;;;;;3.71;68.12;99962.57;124226;1108;104108;-76
2023/11/20 10:42:28;;;;;;;16.30;6.90;;;;;;;3.75;67.20;99953.23;124069;1109;104189;-77
2023/11/20 10:45:04;;;;;;;19.87;7.87;;;;;;;3.76;67.20;99949.84;124362;1108;102123;-76
2023/11/20 10:47:52;;;;;;;18.85;7.90;;;;;;;3.83;67.87;99953.66;124233;1109;104294;-76
2023/11/20 10:50:45;;;;;;;16.13;7.00;;;;;;;3.87;67.39;99948.71;124067;1109;102637;-77
2023/11/20 10:53:23;;;;;;;18.30;7.37;;;;;;;3.92;67.36;99947.24;124116;1109;104966;-78
2023/11/20 10:56:20;;;;;;;16.13;6.83;;;;;;;3.95;67.16;99943.93;124193;1109;104258;-77
2023/11/20 10:58:55;;;;;;;16.53;7.20;;;;;;;4.06;67.66;99941.91;124146;1108;102451;-77
2023/11/20 11:01:40;;;;;;;15.73;7.17;;;;;;;4.21;67.39;99947.02;124306;1106;102638;-78
2023/11/20 11:04:31;;;;;;;;;;;;;;;;;;;;;
2023/11/20 11:07:07;;;;;;;19.63;8.10;;;;;;;4.23;67.17;99951.46;124333;1109;104300;-76
2023/11/20 11:13:00;;;;;;;17.50;7.10;;;;;;;4.25;66.66;99949.83;124365;1109;104233;-79
2023/11/20 11:15:33;;;;;;;18.83;7.10;;;;;;;4.18;66.48;99946.86;124554;1109;104246;-78
2023/11/20 11:18:11;;;;;;;17.93;7.60;;;;;;;4.15;66.68;99939.79;124353;1108;104201;-78
2023/11/20 11:20:50;;;;;;;17.70;6.80;;;;;;;4.14;66.47;99936.31;125447;1100;102654;-77
2023/11/20 11:23:32;;;;;;;15.43;7.03;;;;;;;4.14;66.65;99936.31;125110;1108;102067;-77
2023/11/20 11:26:18;;;;;;;14.67;6.33;;;;;;;4.17;66.81;99932.95;124542;1109;102240;-76
2023/11/20 11:29:20;;;;;;;17.37;7.40;;;;;;;4.09;66.33;99924.77;124534;1108;104201;-78
2023/11/20 11:32:37;;;;;;;15.40;7.03;;;;;;;4.13;66.24;99938.83;124958;1108;102266;-76
2023/11/20 11:35:32;;;;;;;15.43;6.97;;;;;;;4.13;65.92;99944.02;125219;1109;102521;-77
2023/11/20 11:38:28;;;;;;;15.77;7.37;;;;;;;4.14;65.27;99943.19;124566;1109;103198;-77
2023/11/20 11:45:13;;;;;;;16.50;7.40;;;;;;;4.25;65.65;99944.62;125109;1109;118155;-77
2023/11/20 11:48:04;;;;;;;15.65;7.50;;;;;;;4.31;65.71;99937.16;125127;1108;104249;-80
2023/11/20 11:50:59;;;;;;;18.30;7.70;;;;;;;4.39;66.13;99944.47;125041;1109;102492;-78
2023/11/20 11:53:31;;;;;;;17.33;7.30;;;;;;;4.40;65.66;99943.66;124403;1108;102530;-77